sensor_id;sensor_type;location;lat;lon;timestamp;pressure;altitude;pressure_sealevel;temperature;humidity
54808;BME280;40708;50.364;7.550;2023-05-13T00:01:00;102458.72;;;10.39;100.00
54808;BME280;40708;50.364;7.550;2023-05-13T00:03:25;102466.53;;;10.35;100.00
54808;BME280;40708;50.364;7.550;2023-05-13T00:05:51;102464.72;;;10.34;100.00
54808;BME280;40708;50.364;7.550;2023-05-13T00:08:16;102484.25;;;10.36;100.00
54808;BME280;40708;50.364;7.550;2023-05-13T00:10:41;102470.69;;;10.27;100.00
54808;BME280;40708;50.364;7.550;2023-05-13T00:13:07;102480.25;;;10.22;100.00
54808;BME280;40708;50.364;7.550;2023-05-13T00:15:32;102472.97;;;10.16;100.00
54808;BME280;40708;50.364;7.550;2023-05-13T00:17:57;102485.34;;;10.15;100.00
54808;BME280;40708;50.364;7.550;2023-05-13T00:20:23;102493.03;;;10.09;100.00
54808;BME280;40708;50.364;7.550;2023-05-13T00:22:48;102484.75;;;10.00;100.00
54808;BME280;40708;50.364;7.550;2023-05-13T00:25:13;102503.94;;;10.17;100.00
54808;BME280;40708;50.364;7.550;2023-05-13T00:27:39;102511.75;;;10.12;100.00
54808;BME280;40708;50.364;7.550;2023-05-13T00:30:05;102502.63;;;10.06;100.00
54808;BME280;40708;50.364;7.550;2023-05-13T00:32:30;102505.84;;;9.97;100.00
54808;BME280;40708;50.364;7.550;2023-05-13T00:34:56;102509.25;;;9.93;100.00
54808;BME280;40708;50.364;7.550;2023-05-13T00:37:21;102506.47;;;9.89;100.00
54808;BME280;40708;50.364;7.550;2023-05-13T00:39:46;102492.97;;;9.83;100.00
54808;BME280;40708;50.364;7.550;2023-05-13T00:42:12;102500.25;;;9.88;100.00
54808;BME280;40708;50.364;7.550;2023-05-13T00:44:38;102496.53;;;9.83;100.00
54808;BME280;40708;50.364;7.550;2023-05-13T00:47:04;102497.09;;;9.75;100.00
54808;BME280;40708;50.364;7.550;2023-05-13T00:49:34;102498.88;;;9.76;100.00
54808;BME280;40708;50.364;7.550;2023-05-13T00:52:00;102510.09;;;9.67;100.00
54808;BME280;40708;50.364;7.550;2023-05-13T00:54:27;102515.19;;;9.63;100.00
54808;BME280;40708;50.364;7.550;2023-05-13T00:56:53;102519.38;;;9.56;100.00
54808;BME280;40708;50.364;7.550;2023-05-13T00:59:22;102524.06;;;9.63;100.00
54808;BME280;40708;50.364;7.550;2023-05-13T01:01:58;102517.91;;;9.64;100.00
54808;BME280;40708;50.364;7.550;2023-05-13T01:07:45;102556.50;;;9.80;100.00
54808;BME280;40708;50.364;7.550;2023-05-13T01:10:26;102555.53;;;9.78;100.00
54808;BME280;40708;50.364;7.550;2023-05-13T01:13:06;102555.41;;;9.75;100.00
54808;BME280;40708;50.364;7.550;2023-05-13T01:15:33;102564.72;;;9.87;100.00
54808;BME280;40708;50.364;7.550;2023-05-13T01:18:08;102585.41;;;9.97;100.00
54808;BME280;40708;50.364;7.550;2023-05-13T01:20:37;102595.19;;;9.98;100.00
54808;BME280;40708;50.364;7.550;2023-05-13T01:23:04;102599.88;;;10.05;100.00
54808;BME280;40708;50.364;7.550;2023-05-13T01:25:30;102593.88;;;10.11;100.00
54808;BME280;40708;50.364;7.550;2023-05-13T01:27:56;102598.34;;;10.12;100.00
54808;BME280;40708;50.364;7.550;2023-05-13T01:30:21;102599.09;;;10.08;100.00
54808;BME280;40708;50.364;7.550;2023-05-13T01:32:48;102598.50;;;10.15;100.00
54808;BME280;40708;50.364;7.550;2023-05-13T01:35:15;102603.78;;;10.15;100.00
54808;BME280;40708;50.364;7.550;2023-05-13T01:37:41;102609.22;;;10.18;100.00
54808;BME280;40708;50.364;7.550;2023-05-13T01:40:07;102614.53;;;10.18;100.00
54808;BME280;40708;50.364;7.550;2023-05-13T01:42:33;102621.25;;;10.10;100.00
54808;BME280;40708;50.364;7.550;2023-05-13T01:44:59;102608.69;;;10.04;100.00
54808;BME280;40708;50.364;7.550;2023-05-13T01:47:24;102613.06;;;10.04;100.00
54808;BME280;40708;50.364;7.550;2023-05-13T01:49:50;102619.16;;;10.01;100.00
54808;BME280;40708;50.364;7.550;2023-05-13T01:52:15;102617.25;;;9.97;100.00
54808;BME280;40708;50.364;7.550;2023-05-13T01:54:40;102618.91;;;9.94;100.00
54808;BME280;40708;50.364;7.550;2023-05-13T01:57:05;102613.59;;;9.94;100.00
54808;BME280;40708;50.364;7.550;2023-05-13T01:59:31;102609.06;;;9.91;100.00
54808;BME280;40708;50.364;7.550;2023-05-13T02:01:56;102606.22;;;9.87;100.00
54808;BME280;40708;50.364;7.550;2023-05-13T02:04:21;102595.41;;;9.81;100.00
54808;BME280;40708;50.364;7.550;2023-05-13T02:06:47;102593.44;;;9.75;100.00
54808;BME280;40708;50.364;7.550;2023-05-13T02:09:12;102598.75;;;9.75;100.00
54808;BME280;40708;50.364;7.550;2023-05-13T02:11:38;102605.84;;;9.76;100.00
54808;BME280;40708;50.364;7.550;2023-05-13T02:14:03;102604.88;;;9.74;100.00
54808;BME280;40708;50.364;7.550;2023-05-13T02:16:30;102595.91;;;9.71;100.00
54808;BME280;40708;50.364;7.550;2023-05-13T02:18:55;102593.38;;;9.74;100.00
54808;BME280;40708;50.364;7.550;2023-05-13T02:21:20;102607.66;;;9.77;100.00
54808;BME280;40708;50.364;7.550;2023-05-13T02:23:46;102616.56;;;9.79;100.00
54808;BME280;40708;50.364;7.550;2023-05-13T02:26:11;102613.78;;;9.76;100.00
54808;BME280;40708;50.364;7.550;2023-05-13T02:28:37;102625.53;;;9.83;100.00
54808;BME280;40708;50.364;7.550;2023-05-13T02:31:02;102627.31;;;9.84;100.00
54808;BME280;40708;50.364;7.550;2023-05-13T02:33:27;102628.91;;;9.79;100.00
54808;BME280;40708;50.364;7.550;2023-05-13T02:35:53;102623.56;;;9.77;100.00
54808;BME280;40708;50.364;7.550;2023-05-13T02:38:18;102622.47;;;9.72;100.00
54808;BME280;40708;50.364;7.550;2023-05-13T02:40:43;102618.88;;;9.70;100.00
54808;BME280;40708;50.364;7.550;2023-05-13T02:43:09;102621.53;;;9.70;100.00
54808;BME280;40708;50.364;7.550;2023-05-13T02:45:34;102620.50;;;9.67;100.00
54808;BME280;40708;50.364;7.550;2023-05-13T02:47:59;102604.59;;;9.67;100.00
54808;BME280;40708;50.364;7.550;2023-05-13T02:50:24;102597.59;;;9.69;100.00
54808;BME280;40708;50.364;7.550;2023-05-13T02:52:50;102588.63;;;9.65;100.00
54808;BME280;40708;50.364;7.550;2023-05-13T02:55:16;102583.03;;;9.57;100.00
54808;BME280;40708;50.364;7.550;2023-05-13T02:57:41;102583.81;;;9.55;100.00
54808;BME280;40708;50.364;7.550;2023-05-13T03:00:08;102584.84;;;9.58;100.00
54808;BME280;40708;50.364;7.550;2023-05-13T03:02:34;102601.28;;;9.72;100.00
54808;BME280;40708;50.364;7.550;2023-05-13T03:04:59;102613.00;;;9.79;100.00
54808;BME280;40708;50.364;7.550;2023-05-13T03:07:24;102602.13;;;9.71;100.00
54808;BME280;40708;50.364;7.550;2023-05-13T03:09:50;102599.53;;;9.73;100.00
54808;BME280;40708;50.364;7.550;2023-05-13T03:12:15;102593.09;;;9.66;100.00
54808;BME280;40708;50.364;7.550;2023-05-13T03:14:41;102592.97;;;9.63;100.00
54808;BME280;40708;50.364;7.550;2023-05-13T03:17:09;102579.44;;;9.55;100.00
54808;BME280;40708;50.364;7.550;2023-05-13T03:19:35;102588.09;;;9.51;100.00
54808;BME280;40708;50.364;7.550;2023-05-13T03:22:02;102580.88;;;9.47;100.00
54808;BME280;40708;50.364;7.550;2023-05-13T03:24:27;102582.44;;;9.42;100.00
54808;BME280;40708;50.364;7.550;2023-05-13T03:26:53;102588.34;;;9.35;100.00
54808;BME280;40708;50.364;7.550;2023-05-13T03:29:18;102578.53;;;9.33;100.00
54808;BME280;40708;50.364;7.550;2023-05-13T03:31:44;102581.25;;;9.34;100.00
54808;BME280;40708;50.364;7.550;2023-05-13T03:34:09;102577.69;;;9.34;100.00
54808;BME280;40708;50.364;7.550;2023-05-13T03:36:34;102572.44;;;9.35;100.00
54808;BME280;40708;50.364;7.550;2023-05-13T03:39:00;102583.28;;;9.41;100.00
54808;BME280;40708;50.364;7.550;2023-05-13T03:41:25;102582.63;;;9.47;100.00
54808;BME280;40708;50.364;7.550;2023-05-13T03:43:52;102590.81;;;9.53;100.00
54808;BME280;40708;50.364;7.550;2023-05-13T03:46:17;102585.50;;;9.53;100.00
54808;BME280;40708;50.364;7.550;2023-05-13T03:48:44;102583.91;;;9.56;100.00
54808;BME280;40708;50.364;7.550;2023-05-13T03:51:09;102594.72;;;9.63;100.00
54808;BME280;40708;50.364;7.550;2023-05-13T03:53:35;102595.09;;;9.73;100.00
54808;BME280;40708;50.364;7.550;2023-05-13T03:56:00;102607.78;;;9.80;100.00
54808;BME280;40708;50.364;7.550;2023-05-13T03:58:25;102616.00;;;9.88;100.00
54808;BME280;40708;50.364;7.550;2023-05-13T04:00:51;102610.75;;;9.89;100.00
54808;BME280;40708;50.364;7.550;2023-05-13T04:03:16;102615.28;;;9.92;100.00
54808;BME280;40708;50.364;7.550;2023-05-13T04:05:44;102614.53;;;9.96;100.00
54808;BME280;40708;50.364;7.550;2023-05-13T04:08:10;102610.97;;;9.95;100.00
54808;BME280;40708;50.364;7.550;2023-05-13T04:10:35;102615.50;;;9.98;100.00
54808;BME280;40708;50.364;7.550;2023-05-13T04:13:01;102621.16;;;10.07;100.00
54808;BME280;40708;50.364;7.550;2023-05-13T04:15:26;102629.25;;;10.11;100.00
54808;BME280;40708;50.364;7.550;2023-05-13T04:17:51;102640.16;;;10.18;100.00
54808;BME280;40708;50.364;7.550;2023-05-13T04:20:18;102649.91;;;10.19;100.00
54808;BME280;40708;50.364;7.550;2023-05-13T04:22:43;102662.56;;;10.26;100.00
54808;BME280;40708;50.364;7.550;2023-05-13T04:25:09;102669.91;;;10.33;100.00
54808;BME280;40708;50.364;7.550;2023-05-13T04:27:34;102683.34;;;10.37;100.00
54808;BME280;40708;50.364;7.550;2023-05-13T04:29:59;102695.16;;;10.47;100.00
54808;BME280;40708;50.364;7.550;2023-05-13T04:32:25;102710.31;;;10.49;100.00
54808;BME280;40708;50.364;7.550;2023-05-13T04:34:51;102725.78;;;10.61;100.00
54808;BME280;40708;50.364;7.550;2023-05-13T04:37:16;102719.19;;;10.50;100.00
54808;BME280;40708;50.364;7.550;2023-05-13T04:39:44;102732.63;;;10.54;100.00
54808;BME280;40708;50.364;7.550;2023-05-13T04:42:10;102729.06;;;10.54;100.00
54808;BME280;40708;50.364;7.550;2023-05-13T04:44:35;102724.69;;;10.54;100.00
54808;BME280;40708;50.364;7.550;2023-05-13T04:47:00;102733.50;;;10.55;100.00
54808;BME280;40708;50.364;7.550;2023-05-13T04:49:26;102734.66;;;10.61;100.00
54808;BME280;40708;50.364;7.550;2023-05-13T04:51:52;102738.94;;;10.58;100.00
54808;BME280;40708;50.364;7.550;2023-05-13T04:54:17;102735.22;;;10.53;100.00
54808;BME280;40708;50.364;7.550;2023-05-13T04:56:42;102745.44;;;10.66;100.00
54808;BME280;40708;50.364;7.550;2023-05-13T04:59:08;102744.59;;;10.67;100.00
54808;BME280;40708;50.364;7.550;2023-05-13T05:01:33;102761.03;;;10.81;100.00
54808;BME280;40708;50.364;7.550;2023-05-13T05:03:59;102757.81;;;10.89;100.00
54808;BME280;40708;50.364;7.550;2023-05-13T05:06:24;102763.38;;;10.97;100.00
54808;BME280;40708;50.364;7.550;2023-05-13T05:08:49;102756.72;;;11.09;100.00
54808;BME280;40708;50.364;7.550;2023-05-13T05:11:15;102745.03;;;11.04;100.00
54808;BME280;40708;50.364;7.550;2023-05-13T05:13:40;102761.47;;;11.18;100.00
54808;BME280;40708;50.364;7.550;2023-05-13T05:16:05;102748.97;;;11.15;100.00
54808;BME280;40708;50.364;7.550;2023-05-13T05:18:31;102762.09;;;11.36;100.00
54808;BME280;40708;50.364;7.550;2023-05-13T05:20:56;102770.81;;;11.57;100.00
54808;BME280;40708;50.364;7.550;2023-05-13T05:23:21;102785.28;;;11.67;100.00
54808;BME280;40708;50.364;7.550;2023-05-13T05:25:47;102778.56;;;11.76;100.00
54808;BME280;40708;50.364;7.550;2023-05-13T05:28:12;102790.84;;;12.00;100.00
54808;BME280;40708;50.364;7.550;2023-05-13T05:30:37;102768.63;;;11.99;100.00
54808;BME280;40708;50.364;7.550;2023-05-13T05:33:06;102761.66;;;12.03;100.00
54808;BME280;40708;50.364;7.550;2023-05-13T05:35:31;102776.34;;;12.18;100.00
54808;BME280;40708;50.364;7.550;2023-05-13T05:37:58;102754.94;;;12.15;100.00
54808;BME280;40708;50.364;7.550;2023-05-13T05:40:23;102723.78;;;12.11;100.00
54808;BME280;40708;50.364;7.550;2023-05-13T05:42:48;102704.22;;;12.09;100.00
54808;BME280;40708;50.364;7.550;2023-05-13T05:45:14;102697.19;;;12.41;100.00
54808;BME280;40708;50.364;7.550;2023-05-13T05:47:39;102685.19;;;12.25;100.00
54808;BME280;40708;50.364;7.550;2023-05-13T05:50:05;102647.75;;;12.19;100.00
54808;BME280;40708;50.364;7.550;2023-05-13T05:52:30;102641.28;;;12.42;100.00
54808;BME280;40708;50.364;7.550;2023-05-13T05:54:55;102608.41;;;12.40;100.00
54808;BME280;40708;50.364;7.550;2023-05-13T05:57:21;102576.66;;;12.48;100.00
54808;BME280;40708;50.364;7.550;2023-05-13T05:59:46;102564.09;;;12.77;100.00
54808;BME280;40708;50.364;7.550;2023-05-13T06:02:11;102564.47;;;12.92;100.00
54808;BME280;40708;50.364;7.550;2023-05-13T06:04:36;102560.88;;;12.90;100.00
54808;BME280;40708;50.364;7.550;2023-05-13T06:07:02;102552.06;;;12.94;100.00
54808;BME280;40708;50.364;7.550;2023-05-13T06:09:27;102521.91;;;12.58;100.00
54808;BME280;40708;50.364;7.550;2023-05-13T06:11:52;102485.59;;;12.27;100.00
54808;BME280;40708;50.364;7.550;2023-05-13T06:14:18;102498.53;;;12.47;100.00
54808;BME280;40708;50.364;7.550;2023-05-13T06:16:43;102498.69;;;12.53;100.00
54808;BME280;40708;50.364;7.550;2023-05-13T06:19:08;102479.88;;;12.46;100.00
54808;BME280;40708;50.364;7.550;2023-05-13T06:21:33;102459.81;;;12.60;100.00
54808;BME280;40708;50.364;7.550;2023-05-13T06:23:59;102424.97;;;12.51;100.00
54808;BME280;40708;50.364;7.550;2023-05-13T06:26:25;102422.47;;;12.59;100.00
54808;BME280;40708;50.364;7.550;2023-05-13T06:28:50;102441.66;;;12.81;100.00
54808;BME280;40708;50.364;7.550;2023-05-13T06:31:16;102427.69;;;12.91;100.00
54808;BME280;40708;50.364;7.550;2023-05-13T06:33:41;102392.03;;;12.85;100.00
54808;BME280;40708;50.364;7.550;2023-05-13T06:36:07;102373.41;;;12.86;100.00
54808;BME280;40708;50.364;7.550;2023-05-13T06:38:34;102354.88;;;12.91;100.00
54808;BME280;40708;50.364;7.550;2023-05-13T06:40:59;102366.91;;;13.13;100.00
54808;BME280;40708;50.364;7.550;2023-05-13T06:43:24;102348.41;;;13.22;100.00
54808;BME280;40708;50.364;7.550;2023-05-13T06:45:50;102306.16;;;12.98;100.00
54808;BME280;40708;50.364;7.550;2023-05-13T06:48:15;102280.00;;;12.77;100.00
54808;BME280;40708;50.364;7.550;2023-05-13T06:50:40;102293.94;;;13.07;100.00
54808;BME280;40708;50.364;7.550;2023-05-13T06:53:06;102288.88;;;13.21;100.00
54808;BME280;40708;50.364;7.550;2023-05-13T06:55:31;102287.53;;;13.44;100.00
54808;BME280;40708;50.364;7.550;2023-05-13T06:57:56;102251.19;;;13.51;100.00
54808;BME280;40708;50.364;7.550;2023-05-13T07:00:22;102233.66;;;13.65;100.00
54808;BME280;40708;50.364;7.550;2023-05-13T07:02:47;102227.84;;;13.90;100.00
54808;BME280;40708;50.364;7.550;2023-05-13T07:05:12;102202.13;;;13.95;100.00
54808;BME280;40708;50.364;7.550;2023-05-13T07:07:38;102170.09;;;13.95;100.00
54808;BME280;40708;50.364;7.550;2023-05-13T07:10:03;102113.91;;;13.83;100.00
54808;BME280;40708;50.364;7.550;2023-05-13T07:12:29;102075.88;;;14.01;100.00
54808;BME280;40708;50.364;7.550;2023-05-13T07:14:54;102077.50;;;14.65;100.00
54808;BME280;40708;50.364;7.550;2023-05-13T07:17:20;101997.53;;;14.87;100.00
54808;BME280;40708;50.364;7.550;2023-05-13T07:19:45;101916.69;;;15.22;100.00
54808;BME280;40708;50.364;7.550;2023-05-13T07:22:11;101814.19;;;15.30;100.00
54808;BME280;40708;50.364;7.550;2023-05-13T07:24:37;101760.78;;;15.58;100.00
54808;BME280;40708;50.364;7.550;2023-05-13T07:27:02;101700.16;;;15.64;100.00
54808;BME280;40708;50.364;7.550;2023-05-13T07:29:29;101694.78;;;15.99;100.00
54808;BME280;40708;50.364;7.550;2023-05-13T07:31:56;101625.19;;;16.00;100.00
54808;BME280;40708;50.364;7.550;2023-05-13T07:34:21;101588.53;;;16.16;100.00
54808;BME280;40708;50.364;7.550;2023-05-13T07:36:46;101534.97;;;16.18;100.00
54808;BME280;40708;50.364;7.550;2023-05-13T07:39:12;101484.28;;;15.80;100.00
54808;BME280;40708;50.364;7.550;2023-05-13T07:41:37;101476.16;;;16.01;100.00
54808;BME280;40708;50.364;7.550;2023-05-13T07:44:03;101455.69;;;15.91;100.00
54808;BME280;40708;50.364;7.550;2023-05-13T07:46:29;101422.53;;;16.15;100.00
54808;BME280;40708;50.364;7.550;2023-05-13T07:48:56;101408.81;;;16.58;100.00
54808;BME280;40708;50.364;7.550;2023-05-13T07:51:21;101348.16;;;17.32;100.00
54808;BME280;40708;50.364;7.550;2023-05-13T07:53:46;101254.84;;;17.57;100.00
54808;BME280;40708;50.364;7.550;2023-05-13T07:56:12;101204.53;;;18.20;100.00
54808;BME280;40708;50.364;7.550;2023-05-13T07:58:37;101137.84;;;19.23;100.00
54808;BME280;40708;50.364;7.550;2023-05-13T08:01:03;101033.53;;;19.68;100.00
54808;BME280;40708;50.364;7.550;2023-05-13T08:03:29;100977.97;;;18.99;100.00
54808;BME280;40708;50.364;7.550;2023-05-13T08:05:54;100995.22;;;19.58;100.00
54808;BME280;40708;50.364;7.550;2023-05-13T08:08:20;100949.16;;;19.99;100.00
54808;BME280;40708;50.364;7.550;2023-05-13T08:10:45;100914.59;;;20.13;100.00
54808;BME280;40708;50.364;7.550;2023-05-13T08:13:10;100883.75;;;20.22;100.00
54808;BME280;40708;50.364;7.550;2023-05-13T08:15:36;100908.56;;;19.45;100.00
54808;BME280;40708;50.364;7.550;2023-05-13T08:18:02;100906.28;;;20.49;100.00
54808;BME280;40708;50.364;7.550;2023-05-13T08:20:27;100882.44;;;20.37;100.00
54808;BME280;40708;50.364;7.550;2023-05-13T08:22:55;100865.50;;;20.59;100.00
54808;BME280;40708;50.364;7.550;2023-05-13T08:25:21;100862.59;;;21.16;100.00
54808;BME280;40708;50.364;7.550;2023-05-13T08:27:46;100851.81;;;21.86;100.00
54808;BME280;40708;50.364;7.550;2023-05-13T08:30:12;100830.25;;;22.29;100.00
54808;BME280;40708;50.364;7.550;2023-05-13T08:32:37;100824.81;;;22.09;100.00
54808;BME280;40708;50.364;7.550;2023-05-13T08:35:02;100828.19;;;21.92;100.00
54808;BME280;40708;50.364;7.550;2023-05-13T08:37:28;100822.03;;;21.43;100.00
54808;BME280;40708;50.364;7.550;2023-05-13T08:39:53;100832.75;;;21.67;100.00
54808;BME280;40708;50.364;7.550;2023-05-13T08:42:21;100824.63;;;22.35;100.00
54808;BME280;40708;50.364;7.550;2023-05-13T08:44:47;100821.66;;;21.98;100.00
54808;BME280;40708;50.364;7.550;2023-05-13T08:47:51;100817.16;;;22.20;100.00
54808;BME280;40708;50.364;7.550;2023-05-13T08:50:18;100800.94;;;22.20;100.00
54808;BME280;40708;50.364;7.550;2023-05-13T08:52:44;100796.91;;;22.30;100.00
54808;BME280;40708;50.364;7.550;2023-05-13T08:55:10;100794.97;;;21.67;100.00
54808;BME280;40708;50.364;7.550;2023-05-13T08:57:36;100802.38;;;22.71;100.00
54808;BME280;40708;50.364;7.550;2023-05-13T09:00:03;100781.56;;;22.93;100.00
54808;BME280;40708;50.364;7.550;2023-05-13T09:02:29;100770.63;;;23.53;100.00
54808;BME280;40708;50.364;7.550;2023-05-13T09:04:55;100767.56;;;23.22;100.00
54808;BME280;40708;50.364;7.550;2023-05-13T09:07:22;100753.75;;;23.84;100.00
54808;BME280;40708;50.364;7.550;2023-05-13T09:09:47;100754.41;;;23.33;100.00
54808;BME280;40708;50.364;7.550;2023-05-13T09:15:12;100752.13;;;23.24;100.00
54808;BME280;40708;50.364;7.550;2023-05-13T09:17:44;100750.66;;;23.17;100.00
54808;BME280;40708;50.364;7.550;2023-05-13T09:20:14;100738.94;;;23.55;100.00
54808;BME280;40708;50.364;7.550;2023-05-13T09:22:48;100727.84;;;23.79;100.00
54808;BME280;40708;50.364;7.550;2023-05-13T09:25:15;100733.88;;;22.90;100.00
54808;BME280;40708;50.364;7.550;2023-05-13T09:27:50;100736.34;;;23.15;100.00
54808;BME280;40708;50.364;7.550;2023-05-13T09:30:16;100723.41;;;23.59;100.00
54808;BME280;40708;50.364;7.550;2023-05-13T09:32:41;100716.22;;;24.47;100.00
54808;BME280;40708;50.364;7.550;2023-05-13T09:35:12;100726.56;;;24.04;100.00
54808;BME280;40708;50.364;7.550;2023-05-13T09:37:44;100732.22;;;23.81;100.00
54808;BME280;40708;50.364;7.550;2023-05-13T09:40:19;100710.09;;;24.26;100.00
54808;BME280;40708;50.364;7.550;2023-05-13T09:42:45;100709.38;;;24.22;100.00
54808;BME280;40708;50.364;7.550;2023-05-13T09:45:12;100703.88;;;24.58;100.00
54808;BME280;40708;50.364;7.550;2023-05-13T09:47:38;100706.69;;;24.40;100.00
54808;BME280;40708;50.364;7.550;2023-05-13T09:50:04;100694.75;;;24.94;100.00
54808;BME280;40708;50.364;7.550;2023-05-13T09:52:30;100688.63;;;24.73;100.00
54808;BME280;40708;50.364;7.550;2023-05-13T09:54:59;100686.44;;;24.30;100.00
54808;BME280;40708;50.364;7.550;2023-05-13T09:57:28;100693.19;;;24.55;100.00
54808;BME280;40708;50.364;7.550;2023-05-13T09:59:58;100686.44;;;24.62;100.00
54808;BME280;40708;50.364;7.550;2023-05-13T10:02:24;100679.66;;;24.21;100.00
54808;BME280;40708;50.364;7.550;2023-05-13T10:04:51;100679.97;;;24.15;100.00
54808;BME280;40708;50.364;7.550;2023-05-13T10:07:17;100682.13;;;24.43;100.00
54808;BME280;40708;50.364;7.550;2023-05-13T10:09:50;100677.22;;;24.66;100.00
54808;BME280;40708;50.364;7.550;2023-05-13T10:12:16;100670.38;;;24.25;100.00
54808;BME280;40708;50.364;7.550;2023-05-13T10:14:44;100670.13;;;24.64;100.00
54808;BME280;40708;50.364;7.550;2023-05-13T10:17:11;100661.78;;;24.84;100.00
54808;BME280;40708;50.364;7.550;2023-05-13T10:19:36;100663.56;;;25.65;100.00
54808;BME280;40708;50.364;7.550;2023-05-13T10:22:02;100661.91;;;25.62;100.00
54808;BME280;40708;50.364;7.550;2023-05-13T10:24:28;100651.78;;;26.10;100.00
54808;BME280;40708;50.364;7.550;2023-05-13T10:26:55;100651.97;;;26.22;95.87
54808;BME280;40708;50.364;7.550;2023-05-13T10:29:21;100654.16;;;25.70;91.20
54808;BME280;40708;50.364;7.550;2023-05-13T10:31:47;100653.44;;;25.82;92.92
54808;BME280;40708;50.364;7.550;2023-05-13T10:34:13;100658.00;;;25.82;92.10
54808;BME280;40708;50.364;7.550;2023-05-13T10:37:00;100648.63;;;25.40;94.07
54808;BME280;40708;50.364;7.550;2023-05-13T10:42:38;100635.41;;;24.70;100.00
54808;BME280;40708;50.364;7.550;2023-05-13T10:45:04;100635.75;;;24.47;95.70
54808;BME280;40708;50.364;7.550;2023-05-13T10:47:31;100636.06;;;24.41;100.00
54808;BME280;40708;50.364;7.550;2023-05-13T10:49:56;100637.81;;;24.59;100.00
54808;BME280;40708;50.364;7.550;2023-05-13T10:52:22;100644.00;;;25.42;96.25
54808;BME280;40708;50.364;7.550;2023-05-13T10:55:00;100643.81;;;25.30;81.06
54808;BME280;40708;50.364;7.550;2023-05-13T10:57:34;100641.19;;;25.28;80.28
54808;BME280;40708;50.364;7.550;2023-05-13T11:00:13;100634.03;;;25.88;84.96
54808;BME280;40708;50.364;7.550;2023-05-13T11:02:39;100638.84;;;25.38;82.26
54808;BME280;40708;50.364;7.550;2023-05-13T11:05:05;100641.25;;;24.96;83.95
54808;BME280;40708;50.364;7.550;2023-05-13T11:07:30;100642.56;;;24.71;93.77
54808;BME280;40708;50.364;7.550;2023-05-13T11:09:55;100641.00;;;24.50;94.81
54808;BME280;40708;50.364;7.550;2023-05-13T11:12:21;100637.13;;;24.89;94.42
54808;BME280;40708;50.364;7.550;2023-05-13T11:14:47;100637.38;;;24.17;90.68
54808;BME280;40708;50.364;7.550;2023-05-13T11:17:17;100640.72;;;24.05;98.60
54808;BME280;40708;50.364;7.550;2023-05-13T11:19:45;100639.41;;;23.78;100.00
54808;BME280;40708;50.364;7.550;2023-05-13T11:24:39;100647.09;;;23.68;100.00
54808;BME280;40708;50.364;7.550;2023-05-13T11:27:18;100643.78;;;23.26;100.00
54808;BME280;40708;50.364;7.550;2023-05-13T11:29:51;100633.69;;;23.48;100.00
54808;BME280;40708;50.364;7.550;2023-05-13T11:32:55;100615.78;;;22.89;100.00
54808;BME280;40708;50.364;7.550;2023-05-13T11:37:47;100617.06;;;22.02;98.34
54808;BME280;40708;50.364;7.550;2023-05-13T11:40:26;100615.66;;;22.13;91.05
54808;BME280;40708;50.364;7.550;2023-05-13T11:42:52;100620.00;;;22.56;98.51
54808;BME280;40708;50.364;7.550;2023-05-13T11:45:18;100625.06;;;22.25;100.00
54808;BME280;40708;50.364;7.550;2023-05-13T11:47:44;100621.59;;;22.41;100.00
54808;BME280;40708;50.364;7.550;2023-05-13T11:50:29;100615.22;;;22.42;100.00
54808;BME280;40708;50.364;7.550;2023-05-13T11:53:01;100615.66;;;22.72;100.00
54808;BME280;40708;50.364;7.550;2023-05-13T11:55:28;100620.66;;;22.22;100.00
54808;BME280;40708;50.364;7.550;2023-05-13T11:57:54;100621.69;;;22.20;100.00
54808;BME280;40708;50.364;7.550;2023-05-13T12:00:26;100611.53;;;22.25;100.00
54808;BME280;40708;50.364;7.550;2023-05-13T12:02:52;100608.66;;;22.48;100.00
54808;BME280;40708;50.364;7.550;2023-05-13T12:05:18;100615.66;;;22.72;100.00
54808;BME280;40708;50.364;7.550;2023-05-13T12:07:43;100610.81;;;22.60;100.00
54808;BME280;40708;50.364;7.550;2023-05-13T12:10:09;100615.94;;;22.27;100.00
54808;BME280;40708;50.364;7.550;2023-05-13T12:12:37;100626.47;;;21.93;100.00
54808;BME280;40708;50.364;7.550;2023-05-13T12:15:08;100616.03;;;21.84;100.00
54808;BME280;40708;50.364;7.550;2023-05-13T12:17:35;100620.59;;;22.24;100.00
54808;BME280;40708;50.364;7.550;2023-05-13T12:22:33;100630.31;;;22.28;100.00
54808;BME280;40708;50.364;7.550;2023-05-13T12:25:01;100612.84;;;22.94;100.00
54808;BME280;40708;50.364;7.550;2023-05-13T12:27:50;100616.22;;;23.18;100.00
54808;BME280;40708;50.364;7.550;2023-05-13T12:30:16;100617.25;;;23.69;100.00
54808;BME280;40708;50.364;7.550;2023-05-13T12:32:45;100618.53;;;23.80;100.00
54808;BME280;40708;50.364;7.550;2023-05-13T12:35:13;100624.19;;;23.39;100.00
54808;BME280;40708;50.364;7.550;2023-05-13T12:37:39;100624.44;;;23.33;100.00
54808;BME280;40708;50.364;7.550;2023-05-13T12:40:09;100608.88;;;22.64;100.00
54808;BME280;40708;50.364;7.550;2023-05-13T12:42:35;100622.22;;;21.87;100.00
54808;BME280;40708;50.364;7.550;2023-05-13T12:45:00;100640.66;;;21.76;100.00
54808;BME280;40708;50.364;7.550;2023-05-13T12:47:26;100635.66;;;21.24;100.00
54808;BME280;40708;50.364;7.550;2023-05-13T12:49:53;100671.19;;;21.35;100.00
54808;BME280;40708;50.364;7.550;2023-05-13T12:52:18;100712.97;;;20.77;100.00
54808;BME280;40708;50.364;7.550;2023-05-13T12:54:44;100698.84;;;20.19;100.00
54808;BME280;40708;50.364;7.550;2023-05-13T12:57:09;100724.03;;;19.92;100.00